• Join FlightAware (Why Join?)
  • Login
  • US Flag 
05:54AM EDT


 

Airport Tracker/Info


-or-


 

Live Flight TrackerFlight Track Log ✈ DAL4165 ✈ 23-Apr-2013 ✈ KOKC - KATL

Flight Track Log - Related Links

Times and Time Zones

All times are in EDT time to prevent confusion due to time zone crossing. See the DAL4165 flight status page for this flight to view local times or setup timezone preferences in your user account.

Time Position Orientation Groundspeed Altitude Reporting Facility
EDT Latitude Longitude Course Direction KTS MPH feet Rate Location/Type
07:16PM 35.3997 -97.5919 90° East 131 151 2,000  Level Fort Worth Center
07:17PM 35.4122 -97.5894 North 146 168 2,700 2,580 Climbing Fort Worth Center
07:17PM 35.4561 -97.5639 25° Northeast 197 227 5,000 2,220 Climbing Fort Worth Center
07:18PM 35.4561 -97.4900 90° East 283 326 6,800 1,920 Climbing Fort Worth Center
07:19PM 35.3965 -97.1655 85° East  Level FlightAware Approximate
07:19PM 35.4500 -97.3881 94° East 288 331 8,900  Level Fort Worth Center
07:20PM 35.4001 -97.0206 90° East  Level FlightAware Approximate
07:20PM 35.4394 -97.2708 96° East 314 361 11,000  Level Fort Worth Center
07:21PM 35.4000 -96.8755 90° East  Level FlightAware Approximate
07:21PM 35.4289 -97.1358 95° East 364 419 12,600  Level Fort Worth Center
07:22PM 35.4000 -96.7304 90° East  Level FlightAware Approximate
07:22PM 35.4161 -97.0111 97° East 393 452 14,100  Level Fort Worth Center
07:23PM 35.4031 -96.8583 96° East 427 491 15,900 1,800 Climbing Fort Worth Center
07:24PM 35.4022 -96.7006 90° East 450 518 17,800 1,800 Climbing Fort Worth Center
07:25PM 35.4011 -96.5400 90° East 461 531 19,600 7,560 Climbing Fort Worth Center
07:26PM 35.4019 -96.3744 90° East 477 549 33,000 1,680 Climbing Fort Worth Center
07:27PM 35.4025 -96.2089 90° East 477 549 23,000 -4,200 Descending Fort Worth Center
07:28PM 35.4008 -96.0383 91° East 487 560 24,600 1,500 Climbing Fort Worth Center
07:29PM 35.4008 -95.8653 90° East 493 567 26,000 1,500 Climbing Fort Worth Center
07:30PM 35.4050 -95.6919 88° East 498 573 27,700 1,500 Climbing Fort Worth Center
07:32PM 35.4008 -95.3722 91° East 497 572 30,400 1,140 Climbing Memphis Center
07:33PM 35.3997 -95.1939 90° East 502 578 31,000 300 Climbing Memphis Center
07:34PM 35.3983 -95.0056 90° East 531 611 31,000  Level Memphis Center
07:35PM 35.3947 -94.8194 91° East 547 629 31,000 960 Level Memphis Center
07:36PM 35.3953 -94.6308 90° East 547 629 33,000 780 Climbing Memphis Center
07:37PM 35.3908 -94.4472 92° East 547 629 32,600  Descending Memphis Center
07:38PM 35.3864 -94.2636 92° East 547 629 33,000 180 Climbing Memphis Center
07:39PM 35.3733 -94.0772 95° East 547 629 33,000  Level Memphis Center
07:40PM 35.3600 -93.8908 95° East 547 629 33,000  Level Memphis Center
07:41PM 35.3464 -93.7044 95° East 547 629 33,000  Level Memphis Center
07:42PM 35.3322 -93.5231 95° East 542 624 33,000  Level Memphis Center
07:43PM 35.3158 -93.3419 96° East 542 624 33,000  Level Memphis Center
07:44PM 35.3075 -93.1686 93° East 535 616 33,000  Level Memphis Center
07:45PM 35.2947 -92.9900 95° East 530 610 33,000  Level Memphis Center
07:46PM 35.2817 -92.8142 95° East 530 610 33,000  Level Memphis Center
07:47PM 35.2583 -92.6000 98° East 537 618 33,000  Level Memphis Center
07:48PM 35.2469 -92.4217 94° East 542 624 33,000  Level Memphis Center
07:49PM 35.2311 -92.2381 96° East 542 624 33,000  Level Memphis Center
07:50PM 35.2192 -92.0575 95° East 542 624 33,000  Level Memphis Center
07:51PM 35.2006 -91.8767 97° East 538 619 33,000  Level Memphis Center
07:52PM 35.1839 -91.6986 96° East 538 619 33,000  Level Memphis Center
07:53PM 35.1667 -91.5206 97° East 538 619 33,000  Level Memphis Center
07:54PM 35.1517 -91.3425 96° East 538 619 33,000  Level Memphis Center
07:55PM 35.1342 -91.1619 97° East 538 619 33,000  Level Memphis Center
07:56PM 35.1142 -90.9842 98° East 538 619 33,000  Level Memphis Center
07:57PM 35.0964 -90.8064 97° East 538 619 33,000  Level Memphis Center
07:58PM 35.0781 -90.6286 97° East 538 619 33,000  Level Memphis Center
07:59PM 35.0617 -90.4533 96° East 532 612 33,000  Level Memphis Center
08:00PM 35.0428 -90.2758 97° East 527 606 33,000  Level Memphis Center
08:01PM 35.0239 -90.0958 97° East 527 606 33,000  Level Memphis Center
08:02PM 35.0044 -89.9211 98° East 527 606 33,000  Level Memphis Center
08:03PM 34.9767 -89.7439 101° East 527 606 33,000  Level Memphis Center
08:04PM 34.9506 -89.5667 100° East 527 606 33,000  Level Memphis Center
08:05PM 34.9242 -89.3922 100° East 527 606 33,000  Level Memphis Center
08:06PM 34.8978 -89.2075 100° East 532 612 33,000  Level Memphis Center
08:07PM 34.8753 -89.0586 100° East 522 601 33,000  Level Memphis Center
08:08PM 34.8503 -88.8844 100° East 522 601 33,000  Level Memphis Center
08:09PM 34.8231 -88.7078 101° East 522 601 33,000  Level Memphis Center
08:10PM 34.7956 -88.5311 101° East 522 601 33,000  Level Memphis Center
08:11PM 34.7678 -88.3547 101° East 522 601 33,000  Level Memphis Center
08:12PM 34.7400 -88.1836 101° East 522 601 33,000  Level Memphis Center
08:13PM 34.7117 -88.0075 101° East 522 601 33,000  Level Memphis Center
08:14PM 34.6853 -87.8314 100° East 522 601 33,000  Level Memphis Center
08:15PM 34.6567 -87.6606 101° East 522 601 33,000  Level Memphis Center
08:17PM 34.6019 -87.3219 101° East 508 585 33,000  Level Atlanta Center
08:18PM 34.5667 -87.1514 104° East 508 585 33,000  Level Atlanta Center
08:19PM 34.5333 -86.9789 103° East 513 590 33,000 -240 Level Atlanta Center
08:20PM 34.4997 -86.8089 103° East 513 590 32,600 -780 Descending Atlanta Center
08:21PM 34.4681 -86.6389 103° East 513 590 31,500 -1,320 Descending Atlanta Center
08:22PM 34.4339 -86.4717 104° East 513 590 30,000 -1,620 Descending Atlanta Center
08:23PM 34.4017 -86.3072 103° East 513 590 28,300 -1,740 Descending Atlanta Center
08:24PM 34.3711 -86.1428 103° East 508 585 26,600 -1,800 Descending Atlanta Center
08:25PM 34.3403 -85.9858 103° East 492 566 24,800 -1,920 Descending Atlanta Center
08:26PM 34.3072 -85.8294 104° East 481 554 22,800 -2,040 Descending Atlanta Center
08:27PM 34.2781 -85.6803 103° East 462 532 20,800 -2,100 Descending Atlanta Center
08:28PM 34.2486 -85.5289 103° East 462 532 18,700 -1,980 Descending Atlanta Center
08:29PM 34.2189 -85.3878 104° East 443 510 16,900 -1,920 Descending Atlanta Center
08:30PM 34.1911 -85.2467 103° East 432 497 14,900 -1,860 Descending Atlanta Center
08:31PM 34.1486 -85.1006 109° East 427 491 13,200 -960 Descending Atlanta Center
08:32PM 34.0806 -85.0119 133° Southeast 390 449 13,000 -660 Descending Atlanta Center
08:33PM 34.0058 -84.9711 156° South 325 374 11,900 -1,500 Descending Atlanta Center
08:34PM 33.9244 -84.9400 162° South 310 357 10,000 -1,440 Descending Atlanta Center
08:35PM 33.8475 -84.9092 162° South 296 341 9,100 -600 Descending Atlanta Center
08:36PM 33.7725 -84.8761 160° South 290 334 8,800 -1,020 Descending Atlanta Center
08:37PM 33.7019 -84.8303 152° Southeast 285 328 7,100 -1,440 Descending Atlanta Center
08:38PM 33.6500 -84.7833 143° Southeast 280 322 6,200 -1,200 Descending Atlanta TRACON
08:40PM 33.6333 -84.6167 97° East 252 290 3,800 -1,320 Descending Atlanta TRACON